Time,TemperatureF,DewpointF,PressureIn,WindDirection,WindDirectionDegrees,WindSpeedMPH,WindSpeedGustMPH,Humidity,HourlyPrecipIn,Conditions,Clouds,dailyrainin,SolarRadiationWatts/m^2,SoftwareType,DateUTC
2013-12-30 00:00:00,66.5,58.3,25.94,ESE,113,4.0,4.0,75,0.00,,,0.00,0,Wunderground v.1.15,2013-12-30 06:00:00,
2013-12-30 00:10:00,66.3,58.5,25.94,NNE,28,2.0,3.0,76,0.00,,,0.00,0,Wunderground v.1.15,2013-12-30 06:10:00,
2013-12-30 00:15:00,66.3,58.5,25.94,East,90,2.0,5.0,76,0.00,,,0.00,0,Wunderground v.1.15,2013-12-30 06:15:00,
2013-12-30 00:25:00,66.2,58.8,25.93,East,94,3.0,3.0,77,0.00,,,0.00,0,Wunderground v.1.15,2013-12-30 06:25:00,
2013-12-30 00:30:00,66.2,59.1,25.93,SSE,149,3.0,3.0,78,0.00,,,0.00,0,Wunderground v.1.15,2013-12-30 06:30:00,
2013-12-30 00:40:00,66.2,58.8,25.93,SSE,166,1.0,2.0,77,0.00,,,0.00,0,Wunderground v.1.15,2013-12-30 06:40:00,
2013-12-30 00:45:00,66.2,58.8,25.93,NE,34,1.0,2.0,77,0.00,,,0.00,0,Wunderground v.1.15,2013-12-30 06:45:00,
2013-12-30 00:50:00,66.0,58.9,25.93,East,87,1.0,3.0,78,0.00,,,0.00,0,Wunderground v.1.15,2013-12-30 06:50:00,
2013-12-30 01:00:00,66.2,58.4,25.92,SSE,155,3.0,3.0,76,0.00,,,0.00,0,Wunderground v.1.15,2013-12-30 07:00:00,
2013-12-30 01:10:00,66.2,58.4,25.92,ESE,108,3.0,3.0,76,0.00,,,0.00,0,Wunderground v.1.15,2013-12-30 07:10:00,
2013-12-30 01:20:00,66.2,58.0,25.92,NE,48,2.0,2.0,75,0.00,,,0.00,0,Wunderground v.1.15,2013-12-30 07:20:00,
2013-12-30 01:30:00,65.7,57.9,25.92,East,85,2.0,2.0,76,0.00,,,0.00,0,Wunderground v.1.15,2013-12-30 07:30:00,
2013-12-30 01:40:00,65.7,57.6,25.91,East,82,2.0,2.0,75,0.00,,,0.00,0,Wunderground v.1.15,2013-12-30 07:40:00,
2013-12-30 01:45:00,65.7,57.9,25.91,ENE,72,2.0,3.0,76,0.00,,,0.00,0,Wunderground v.1.15,2013-12-30 07:45:00,
2013-12-30 01:55:00,65.4,58.0,25.91,ESE,104,2.0,4.0,77,0.00,,,0.00,0,Wunderground v.1.15,2013-12-30 07:55:00,
2013-12-30 02:00:00,65.2,57.8,25.91,ESE,109,2.0,2.0,77,0.00,,,0.00,0,Wunderground v.1.15,2013-12-30 08:00:00,
2013-12-30 02:10:00,64.9,57.5,25.90,ENE,69,2.0,2.0,77,0.00,,,0.00,0,Wunderground v.1.15,2013-12-30 08:10:00,
2013-12-30 02:15:00,64.9,57.5,25.90,SE,140,2.0,2.0,77,0.00,,,0.00,0,Wunderground v.1.15,2013-12-30 08:15:00,
2013-12-30 02:25:00,64.4,57.0,25.90,SE,140,0.0,1.0,77,0.00,,,0.00,0,Wunderground v.1.15,2013-12-30 08:25:00,
2013-12-30 02:30:00,64.6,56.5,25.90,ENE,71,1.0,1.0,75,0.00,,,0.00,0,Wunderground v.1.15,2013-12-30 08:30:00,
2013-12-30 02:40:00,65.1,55.8,25.90,NNE,24,1.0,1.0,72,0.00,,,0.00,0,Wunderground v.1.15,2013-12-30 08:40:00,
2013-12-30 02:45:00,65.1,56.2,25.91,East,94,0.0,2.0,73,0.00,,,0.00,0,Wunderground v.1.15,2013-12-30 08:45:00,
2013-12-30 02:55:00,64.9,56.8,25.91,ESE,109,2.0,4.0,75,0.00,,,0.00,0,Wunderground v.1.15,2013-12-30 08:55:00,
2013-12-30 03:05:00,64.7,57.3,25.90,North,360,3.0,7.0,77,0.00,,,0.00,0,Wunderground v.1.15,2013-12-30 09:05:00,
2013-12-30 03:15:00,65.1,57.0,25.91,East,100,3.0,4.0,75,0.00,,,0.00,0,Wunderground v.1.15,2013-12-30 09:15:00,
2013-12-30 03:25:00,64.9,56.0,25.91,East,79,2.0,3.0,73,0.00,,,0.00,0,Wunderground v.1.15,2013-12-30 09:25:00,
2013-12-30 03:35:00,65.4,56.5,25.91,ENE,78,1.0,1.0,73,0.00,,,0.00,0,Wunderground v.1.15,2013-12-30 09:35:00,
2013-12-30 03:40:00,65.2,56.3,25.91,East,79,0.0,0.0,73,0.00,,,0.00,0,Wunderground v.1.15,2013-12-30 09:40:00,
2013-12-30 03:45:00,65.1,56.6,25.91,SE,126,0.0,0.0,74,0.00,,,0.00,0,Wunderground v.1.15,2013-12-30 09:45:00,
2013-12-30 03:55:00,64.2,56.5,25.91,SE,126,0.0,0.0,76,0.00,,,0.00,0,Wunderground v.1.15,2013-12-30 09:55:00,
2013-12-30 04:00:00,63.9,56.2,25.91,SE,126,0.0,0.0,76,0.00,,,0.00,0,Wunderground v.1.15,2013-12-30 10:00:00,
2013-12-30 04:05:00,63.8,56.1,25.91,SE,126,0.0,0.0,76,0.00,,,0.00,0,Wunderground v.1.15,2013-12-30 10:05:00,
2013-12-30 04:15:00,63.8,56.1,25.91,ENE,78,1.0,2.0,76,0.00,,,0.00,0,Wunderground v.1.15,2013-12-30 10:15:00,
2013-12-30 04:25:00,63.9,56.2,25.91,East,94,1.0,2.0,76,0.00,,,0.00,0,Wunderground v.1.15,2013-12-30 10:25:00,
2013-12-30 04:30:00,64.1,56.4,25.91,ESE,110,1.0,1.0,76,0.00,,,0.00,0,Wunderground v.1.15,2013-12-30 10:30:00,
2013-12-30 04:40:00,64.1,56.0,25.91,East,80,1.0,1.0,75,0.00,,,0.00,0,Wunderground v.1.15,2013-12-30 10:40:00,
2013-12-30 04:45:00,64.1,56.4,25.92,North,11,2.0,2.0,76,0.00,,,0.00,0,Wunderground v.1.15,2013-12-30 10:45:00,
2013-12-30 04:55:00,64.2,56.5,25.92,ENE,78,1.0,3.0,76,0.00,,,0.00,0,Wunderground v.1.15,2013-12-30 10:55:00,
2013-12-30 05:00:00,64.2,56.5,25.92,ENE,75,1.0,1.0,76,0.00,,,0.00,0,Wunderground v.1.15,2013-12-30 11:00:00,
2013-12-30 05:05:00,64.4,56.7,25.92,East,98,2.0,2.0,76,0.00,,,0.00,0,Wunderground v.1.15,2013-12-30 11:05:00,
2013-12-30 05:15:00,64.2,56.5,25.92,SSE,158,2.0,2.0,76,0.00,,,0.00,0,Wunderground v.1.15,2013-12-30 11:15:00,
2013-12-30 05:25:00,64.2,56.8,25.92,SE,126,2.0,2.0,77,0.00,,,0.00,0,Wunderground v.1.15,2013-12-30 11:25:00,
2013-12-30 05:30:00,64.1,56.7,25.92,SE,134,2.0,2.0,77,0.00,,,0.00,0,Wunderground v.1.15,2013-12-30 11:30:00,
2013-12-30 05:40:00,63.9,56.5,25.92,ESE,121,1.0,4.0,77,0.00,,,0.00,0,Wunderground v.1.15,2013-12-30 11:40:00,
2013-12-30 05:45:00,63.9,57.6,25.93,ENE,69,2.0,4.0,80,0.00,,,0.00,0,Wunderground v.1.15,2013-12-30 11:45:00,
2013-12-30 05:55:00,64.1,57.5,25.93,ESE,103,3.0,3.0,79,0.00,,,0.00,5,Wunderground v.1.15,2013-12-30 11:55:00,
2013-12-30 06:00:00,64.1,57.5,25.93,ENE,67,2.0,2.0,79,0.00,,,0.00,7,Wunderground v.1.15,2013-12-30 12:00:00,
2013-12-30 06:10:00,64.1,56.7,25.93,East,96,2.0,4.0,77,0.00,,,0.00,12,Wunderground v.1.15,2013-12-30 12:10:00,
2013-12-30 06:15:00,64.2,56.1,25.94,East,88,3.0,8.0,75,0.00,,,0.00,18,Wunderground v.1.15,2013-12-30 12:15:00,
2013-12-30 06:25:00,64.9,56.4,25.94,ESE,119,4.0,4.0,74,0.00,,,0.00,25,Wunderground v.1.15,2013-12-30 12:25:00,
2013-12-30 06:30:00,65.2,56.7,25.94,ESE,115,4.0,4.0,74,0.00,,,0.00,26,Wunderground v.1.15,2013-12-30 12:30:00,
2013-12-30 06:40:00,65.5,56.6,25.94,SE,136,3.0,3.0,73,0.00,,,0.00,95,Wunderground v.1.15,2013-12-30 12:40:00,
2013-12-30 06:45:00,65.7,56.8,25.94,South,187,4.0,4.0,73,0.00,,,0.00,104,Wunderground v.1.15,2013-12-30 12:45:00,
2013-12-30 06:55:00,66.0,57.1,25.95,East,84,4.0,4.0,73,0.00,,,0.00,84,Wunderground v.1.15,2013-12-30 12:55:00,
2013-12-30 07:00:00,66.2,57.3,25.95,ENE,75,4.0,4.0,73,0.00,,,0.00,186,Wunderground v.1.15,2013-12-30 13:00:00,
2013-12-30 07:05:00,66.5,56.8,25.95,East,92,2.0,4.0,71,0.00,,,0.00,202,Wunderground v.1.15,2013-12-30 13:05:00,
2013-12-30 07:15:00,67.2,57.5,25.96,SSE,152,3.0,4.0,71,0.00,,,0.00,246,Wunderground v.1.15,2013-12-30 13:15:00,
2013-12-30 07:25:00,67.7,57.2,25.96,NW,311,4.0,5.0,69,0.00,,,0.00,272,Wunderground v.1.15,2013-12-30 13:25:00,
2013-12-30 07:30:00,68.0,57.4,25.96,SSE,161,3.0,7.0,69,0.00,,,0.00,290,Wunderground v.1.15,2013-12-30 13:30:00,
2013-12-30 07:40:00,68.5,57.1,25.96,SE,127,4.0,5.0,67,0.00,,,0.00,334,Wunderground v.1.15,2013-12-30 13:40:00,
2013-12-30 07:45:00,68.8,57.4,25.96,ESE,103,3.0,5.0,67,0.00,,,0.00,120,Wunderground v.1.15,2013-12-30 13:45:00,
2013-12-30 07:55:00,68.8,57.8,25.97,SSE,150,3.0,5.0,68,0.00,,,0.00,431,Wunderground v.1.15,2013-12-30 13:55:00,
2013-12-30 08:00:00,68.5,58.3,25.97,SE,132,4.0,5.0,70,0.00,,,0.00,443,Wunderground v.1.15,2013-12-30 14:00:00,
2013-12-30 08:10:00,68.5,58.7,25.97,NNE,32,5.0,5.0,71,0.00,,,0.00,446,Wunderground v.1.15,2013-12-30 14:10:00,
2013-12-30 08:15:00,68.3,58.1,25.97,ENE,68,6.0,6.0,70,0.00,,,0.00,183,Wunderground v.1.15,2013-12-30 14:15:00,
2013-12-30 08:25:00,68.5,58.3,25.97,ESE,121,5.0,6.0,70,0.00,,,0.00,466,Wunderground v.1.15,2013-12-30 14:25:00,
2013-12-30 08:30:00,69.0,58.0,25.98,SSE,148,5.0,5.0,68,0.00,,,0.00,90,Wunderground v.1.15,2013-12-30 14:30:00,
2013-12-30 08:40:00,69.7,57.8,25.98,ENE,61,5.0,5.0,66,0.00,,,0.00,399,Wunderground v.1.15,2013-12-30 14:40:00,
2013-12-30 08:45:00,69.8,58.3,25.98,NW,325,6.0,7.0,67,0.00,,,0.00,563,Wunderground v.1.15,2013-12-30 14:45:00,
2013-12-30 08:55:00,70.0,58.5,25.98,East,100,5.0,5.0,67,0.00,,,0.00,570,Wunderground v.1.15,2013-12-30 14:55:00,
2013-12-30 09:00:00,69.8,58.8,25.98,North,5,6.0,6.0,68,0.00,,,0.00,577,Wunderground v.1.15,2013-12-30 15:00:00,
2013-12-30 09:05:00,70.3,58.8,25.97,ESE,123,6.0,6.0,67,0.00,,,0.00,635,Wunderground v.1.15,2013-12-30 15:05:00,
2013-12-30 09:15:00,70.8,58.9,25.98,ENE,69,5.0,6.0,66,0.00,,,0.00,659,Wunderground v.1.15,2013-12-30 15:15:00,
2013-12-30 09:25:00,70.8,58.9,25.97,North,355,5.0,13.0,66,0.00,,,0.00,670,Wunderground v.1.15,2013-12-30 15:25:00,
2013-12-30 09:30:00,70.7,59.2,25.97,NW,325,7.0,11.0,67,0.00,,,0.00,703,Wunderground v.1.15,2013-12-30 15:30:00,
2013-12-30 09:40:00,71.4,59.4,25.97,SE,138,6.0,6.0,66,0.00,,,0.00,756,Wunderground v.1.15,2013-12-30 15:40:00,
2013-12-30 09:45:00,71.2,59.3,25.97,NW,314,5.0,6.0,66,0.00,,,0.00,756,Wunderground v.1.15,2013-12-30 15:45:00,
2013-12-30 09:55:00,70.8,59.3,25.97,NNW,347,5.0,6.0,67,0.00,,,0.00,227,Wunderground v.1.15,2013-12-30 15:55:00,
2013-12-30 10:00:00,70.3,59.2,25.97,SE,146,5.0,5.0,68,0.00,,,0.00,225,Wunderground v.1.15,2013-12-30 16:00:00,
2013-12-30 10:10:00,70.5,59.0,25.97,WNW,292,6.0,6.0,67,0.00,,,0.00,216,Wunderground v.1.15,2013-12-30 16:10:00,
2013-12-30 10:15:00,70.5,59.0,25.96,NNE,24,7.0,7.0,67,0.00,,,0.00,341,Wunderground v.1.15,2013-12-30 16:15:00,
2013-12-30 10:25:00,71.7,59.7,25.96,NE,44,5.0,8.0,66,0.00,,,0.00,867,Wunderground v.1.15,2013-12-30 16:25:00,
2013-12-30 10:30:00,72.0,60.0,25.97,North,360,6.0,8.0,66,0.00,,,0.00,881,Wunderground v.1.15,2013-12-30 16:30:00,
2013-12-30 10:40:00,71.7,59.7,25.96,WNW,300,7.0,7.0,66,0.00,,,0.00,803,Wunderground v.1.15,2013-12-30 16:40:00,
2013-12-30 10:45:00,71.9,60.3,25.96,NE,40,6.0,7.0,67,0.00,,,0.00,814,Wunderground v.1.15,2013-12-30 16:45:00,
2013-12-30 10:55:00,72.4,60.0,25.96,North,11,5.0,5.0,65,0.00,,,0.00,838,Wunderground v.1.15,2013-12-30 16:55:00,
2013-12-30 11:00:00,72.2,60.6,25.95,ENE,70,7.0,7.0,67,0.00,,,0.00,868,Wunderground v.1.15,2013-12-30 17:00:00,
2013-12-30 11:10:00,73.2,60.3,25.95,SSW,195,6.0,6.0,64,0.00,,,0.00,868,Wunderground v.1.15,2013-12-30 17:10:00,
2013-12-30 11:15:00,73.2,60.3,25.95,NE,50,6.0,8.0,64,0.00,,,0.00,872,Wunderground v.1.15,2013-12-30 17:15:00,
2013-12-30 11:25:00,73.4,60.5,25.95,ENE,74,6.0,7.0,64,0.00,,,0.00,893,Wunderground v.1.15,2013-12-30 17:25:00,
2013-12-30 11:30:00,73.2,60.7,25.95,NE,51,6.0,7.0,65,0.00,,,0.00,886,Wunderground v.1.15,2013-12-30 17:30:00,
2013-12-30 11:35:00,73.4,60.5,25.94,South,169,6.0,8.0,64,0.00,,,0.00,891,Wunderground v.1.15,2013-12-30 17:35:00,
2013-12-30 11:45:00,72.6,60.6,25.94,North,5,8.0,10.0,66,0.00,,,0.00,935,Wunderground v.1.15,2013-12-30 17:45:00,
2013-12-30 11:55:00,73.2,60.3,25.93,ENE,59,7.0,8.0,64,0.00,,,0.00,912,Wunderground v.1.15,2013-12-30 17:55:00,
2013-12-30 12:00:00,73.8,60.4,25.94,North,5,5.0,7.0,63,0.00,,,0.00,292,Wunderground v.1.15,2013-12-30 18:00:00,
2013-12-30 12:10:00,73.6,61.1,25.93,NE,45,6.0,8.0,65,0.00,,,0.00,220,Wunderground v.1.15,2013-12-30 18:10:00,
2013-12-30 12:15:00,73.1,60.6,25.93,North,360,6.0,8.0,65,0.00,,,0.00,237,Wunderground v.1.15,2013-12-30 18:15:00,
2013-12-30 12:25:00,72.6,61.0,25.92,NE,45,5.0,16.0,67,0.00,,,0.00,315,Wunderground v.1.15,2013-12-30 18:25:00,
2013-12-30 12:35:00,72.7,61.5,25.92,NE,38,6.0,12.0,68,0.00,,,0.00,343,Wunderground v.1.15,2013-12-30 18:35:00,
2013-12-30 12:45:00,72.0,62.1,25.92,WNW,298,6.0,11.0,71,0.00,,,0.00,223,Wunderground v.1.15,2013-12-30 18:45:00,
2013-12-30 12:55:00,71.2,62.1,25.92,North,5,4.0,6.0,73,0.00,,,0.00,155,Wunderground v.1.15,2013-12-30 18:55:00,
2013-12-30 13:00:00,70.8,62.1,25.92,NNE,12,5.0,6.0,74,0.00,,,0.00,206,Wunderground v.1.15,2013-12-30 19:00:00,
2013-12-30 13:10:00,70.7,62.4,25.91,North,360,7.0,7.0,75,0.00,,,0.00,504,Wunderground v.1.15,2013-12-30 19:10:00,
2013-12-30 13:15:00,71.0,61.9,25.91,South,173,7.0,7.0,73,0.00,,,0.00,904,Wunderground v.1.15,2013-12-30 19:15:00,
2013-12-30 13:25:00,70.5,61.4,25.91,North,5,6.0,7.0,73,0.00,,,0.00,599,Wunderground v.1.15,2013-12-30 19:25:00,
2013-12-30 13:35:00,70.7,61.6,25.91,NNE,23,6.0,14.0,73,0.00,,,0.00,666,Wunderground v.1.15,2013-12-30 19:35:00,
2013-12-30 13:40:00,70.7,61.2,25.91,North,355,7.0,7.0,72,0.00,,,0.00,664,Wunderground v.1.15,2013-12-30 19:40:00,
2013-12-30 13:45:00,70.7,61.2,25.90,WNW,292,8.0,8.0,72,0.00,,,0.00,670,Wunderground v.1.15,2013-12-30 19:45:00,
2013-12-30 13:55:00,70.5,61.0,25.90,North,355,7.0,10.0,72,0.00,,,0.00,703,Wunderground v.1.15,2013-12-30 19:55:00,
2013-12-30 14:00:00,70.5,60.6,25.90,ENE,63,7.0,7.0,71,0.00,,,0.00,278,Wunderground v.1.15,2013-12-30 20:00:00,
2013-12-30 14:10:00,70.3,60.1,25.90,SSE,150,7.0,7.0,70,0.00,,,0.00,230,Wunderground v.1.15,2013-12-30 20:10:00,
2013-12-30 14:15:00,70.5,60.6,25.90,NNE,14,6.0,7.0,71,0.00,,,0.00,244,Wunderground v.1.15,2013-12-30 20:15:00,
2013-12-30 14:25:00,70.7,60.8,25.89,NNE,13,6.0,6.0,71,0.00,,,0.00,714,Wunderground v.1.15,2013-12-30 20:25:00,
2013-12-30 14:30:00,70.8,61.3,25.90,South,169,5.0,5.0,72,0.00,,,0.00,216,Wunderground v.1.15,2013-12-30 20:30:00,
2013-12-30 14:40:00,69.3,60.7,25.90,ENE,73,6.0,6.0,74,0.00,,,0.00,144,Wunderground v.1.15,2013-12-30 20:40:00,
2013-12-30 14:45:00,69.0,60.7,25.90,East,80,6.0,6.0,75,0.00,,,0.00,137,Wunderground v.1.15,2013-12-30 20:45:00,
2013-12-30 14:55:00,68.8,59.8,25.90,NNE,20,5.0,8.0,73,0.00,,,0.00,116,Wunderground v.1.15,2013-12-30 20:55:00,
2013-12-30 15:00:00,68.5,57.9,25.90,NE,40,5.0,14.0,69,0.00,,,0.00,109,Wunderground v.1.15,2013-12-30 21:00:00,
2013-12-30 15:10:00,68.2,58.4,25.89,North,355,6.0,6.0,71,0.00,,,0.00,144,Wunderground v.1.15,2013-12-30 21:10:00,
2013-12-30 15:15:00,68.3,58.1,25.89,NNE,24,5.0,8.0,70,0.00,,,0.00,155,Wunderground v.1.15,2013-12-30 21:15:00,
2013-12-30 15:25:00,68.3,58.1,25.89,NW,312,4.0,11.0,70,0.00,,,0.00,162,Wunderground v.1.15,2013-12-30 21:25:00,
2013-12-30 15:30:00,68.3,58.5,25.89,NNW,333,4.0,4.0,71,0.00,,,0.00,163,Wunderground v.1.15,2013-12-30 21:30:00,
2013-12-30 15:40:00,68.2,58.4,25.89,SW,219,5.0,5.0,71,0.00,,,0.00,137,Wunderground v.1.15,2013-12-30 21:40:00,
2013-12-30 15:50:00,67.8,58.4,25.90,South,171,5.0,5.0,72,0.00,,,0.00,137,Wunderground v.1.15,2013-12-30 21:50:00,
2013-12-30 15:55:00,67.8,58.4,25.89,NNW,329,5.0,10.0,72,0.00,,,0.00,114,Wunderground v.1.15,2013-12-30 21:55:00,
2013-12-30 16:00:00,67.7,58.7,25.89,NW,324,6.0,6.0,73,0.00,,,0.00,179,Wunderground v.1.15,2013-12-30 22:00:00,
2013-12-30 16:10:00,67.2,59.0,25.90,NE,44,5.0,5.0,75,0.00,,,0.00,79,Wunderground v.1.15,2013-12-30 22:10:00,
2013-12-30 16:20:00,67.2,59.0,25.90,NNW,337,6.0,14.0,75,0.00,,,0.00,95,Wunderground v.1.15,2013-12-30 22:20:00,
2013-12-30 16:30:00,67.2,59.4,25.90,ENE,72,8.0,13.0,76,0.00,,,0.00,74,Wunderground v.1.15,2013-12-30 22:30:00,
2013-12-30 16:40:00,67.0,59.2,25.90,NNW,338,5.0,5.0,76,0.00,,,0.00,30,Wunderground v.1.15,2013-12-30 22:40:00,
2013-12-30 16:45:00,67.2,59.0,25.90,ENE,72,5.0,7.0,75,0.00,,,0.00,25,Wunderground v.1.15,2013-12-30 22:45:00,
2013-12-30 16:50:00,67.3,58.7,25.91,SE,144,5.0,5.0,74,0.00,,,0.00,23,Wunderground v.1.15,2013-12-30 22:50:00,
2013-12-30 17:00:00,67.2,59.0,25.91,NE,35,5.0,5.0,75,0.00,,,0.00,16,Wunderground v.1.15,2013-12-30 23:00:00,
2013-12-30 17:10:00,66.7,58.9,25.91,NW,317,5.0,10.0,76,0.00,,,0.00,11,Wunderground v.1.15,2013-12-30 23:10:00,
2013-12-30 17:15:00,66.5,59.1,25.91,North,360,4.0,10.0,77,0.00,,,0.00,7,Wunderground v.1.15,2013-12-30 23:15:00,
2013-12-30 17:20:00,66.3,58.9,25.92,East,81,3.0,4.0,77,0.00,,,0.00,7,Wunderground v.1.15,2013-12-30 23:20:00,
2013-12-30 17:30:00,66.2,58.8,25.92,ESE,123,4.0,6.0,77,0.00,,,0.00,0,Wunderground v.1.15,2013-12-30 23:30:00,
2013-12-30 17:40:00,66.2,58.4,25.92,ENE,74,3.0,3.0,76,0.00,,,0.00,0,Wunderground v.1.15,2013-12-30 23:40:00,
2013-12-30 17:45:00,66.3,58.5,25.92,East,84,2.0,3.0,76,0.00,,,0.00,0,Wunderground v.1.15,2013-12-30 23:45:00,
2013-12-30 17:55:00,66.2,58.4,25.93,SSE,150,3.0,5.0,76,0.00,,,0.00,0,Wunderground v.1.15,2013-12-30 23:55:00,
2013-12-30 18:00:00,66.2,58.4,25.93,East,86,3.0,3.0,76,0.00,,,0.00,0,Wunderground v.1.15,2013-12-31 00:00:00,
2013-12-30 18:05:00,66.2,58.0,25.93,SE,130,2.0,3.0,75,0.00,,,0.00,0,Wunderground v.1.15,2013-12-31 00:05:00,
2013-12-30 18:15:00,66.3,57.4,25.93,East,94,3.0,4.0,73,0.00,,,0.00,0,Wunderground v.1.15,2013-12-31 00:15:00,
2013-12-30 18:20:00,66.2,58.0,25.93,SSE,152,2.0,2.0,75,0.00,,,0.00,0,Wunderground v.1.15,2013-12-31 00:20:00,
2013-12-30 18:25:00,66.0,58.2,25.93,North,360,2.0,2.0,76,0.00,,,0.00,0,Wunderground v.1.15,2013-12-31 00:25:00,
2013-12-30 18:35:00,65.7,57.9,25.94,NNE,14,2.0,2.0,76,0.00,,,0.00,0,Wunderground v.1.15,2013-12-31 00:35:00,
2013-12-30 18:40:00,65.5,58.1,25.94,ENE,58,3.0,3.0,77,0.00,,,0.00,0,Wunderground v.1.15,2013-12-31 00:40:00,
2013-12-30 18:45:00,65.5,58.1,25.94,NNE,17,3.0,3.0,77,0.00,,,0.00,0,Wunderground v.1.15,2013-12-31 00:45:00,
2013-12-30 18:50:00,65.5,58.1,25.94,East,96,3.0,4.0,77,0.00,,,0.00,0,Wunderground v.1.15,2013-12-31 00:50:00,
2013-12-30 19:00:00,65.5,58.1,25.94,ESE,119,4.0,4.0,77,0.00,,,0.00,0,Wunderground v.1.15,2013-12-31 01:00:00,
2013-12-30 19:10:00,65.5,58.1,25.95,NNW,335,2.0,3.0,77,0.00,,,0.00,0,Wunderground v.1.15,2013-12-31 01:10:00,
2013-12-30 19:15:00,65.5,58.1,25.95,NNE,13,2.0,3.0,77,0.00,,,0.00,0,Wunderground v.1.15,2013-12-31 01:15:00,
2013-12-30 19:25:00,65.7,58.3,25.96,SE,143,4.0,7.0,77,0.00,,,0.00,0,Wunderground v.1.15,2013-12-31 01:25:00,
2013-12-30 19:30:00,65.7,57.9,25.96,ENE,65,4.0,4.0,76,0.00,,,0.00,0,Wunderground v.1.15,2013-12-31 01:30:00,
2013-12-30 19:40:00,65.7,57.9,25.96,NE,38,2.0,2.0,76,0.00,,,0.00,0,Wunderground v.1.15,2013-12-31 01:40:00,
2013-12-30 19:45:00,65.5,58.1,25.97,SSE,165,2.0,4.0,77,0.00,,,0.00,0,Wunderground v.1.15,2013-12-31 01:45:00,
2013-12-30 19:55:00,65.5,57.7,25.97,East,96,2.0,2.0,76,0.00,,,0.00,0,Wunderground v.1.15,2013-12-31 01:55:00,
2013-12-30 20:00:00,65.5,57.7,25.97,NNW,336,2.0,2.0,76,0.00,,,0.00,0,Wunderground v.1.15,2013-12-31 02:00:00,
2013-12-30 20:10:00,65.4,57.6,25.97,SE,127,1.0,1.0,76,0.00,,,0.00,0,Wunderground v.1.15,2013-12-31 02:10:00,
2013-12-30 20:15:00,65.4,57.6,25.97,East,94,1.0,5.0,76,0.00,,,0.00,0,Wunderground v.1.15,2013-12-31 02:15:00,
2013-12-30 20:25:00,65.4,57.6,25.97,SE,140,3.0,3.0,76,0.00,,,0.00,0,Wunderground v.1.15,2013-12-31 02:25:00,
2013-12-30 20:35:00,65.2,57.4,25.97,South,178,2.0,4.0,76,0.00,,,0.00,0,Wunderground v.1.15,2013-12-31 02:35:00,
2013-12-30 20:45:00,65.1,57.7,25.97,ESE,119,2.0,2.0,77,0.00,,,0.00,0,Wunderground v.1.15,2013-12-31 02:45:00,
2013-12-30 20:50:00,65.1,57.7,25.97,SSE,153,2.0,4.0,77,0.00,,,0.00,0,Wunderground v.1.15,2013-12-31 02:50:00,
2013-12-30 21:00:00,65.1,57.7,25.97,South,172,3.0,7.0,77,0.00,,,0.00,0,Wunderground v.1.15,2013-12-31 03:00:00,
2013-12-30 21:10:00,65.1,57.3,25.98,ESE,108,2.0,2.0,76,0.00,,,0.00,0,Wunderground v.1.15,2013-12-31 03:10:00,
2013-12-30 21:15:00,65.1,57.0,25.98,SSE,160,3.0,3.0,75,0.00,,,0.00,0,Wunderground v.1.15,2013-12-31 03:15:00,
2013-12-30 21:25:00,65.2,55.9,25.98,East,98,3.0,5.0,72,0.00,,,0.00,0,Wunderground v.1.15,2013-12-31 03:25:00,
2013-12-30 21:35:00,65.4,55.7,25.98,NE,38,2.0,3.0,71,0.00,,,0.00,0,Wunderground v.1.15,2013-12-31 03:35:00,
2013-12-30 21:45:00,65.4,55.7,25.98,SSE,153,2.0,2.0,71,0.00,,,0.00,0,Wunderground v.1.15,2013-12-31 03:45:00,
2013-12-30 21:50:00,65.2,55.9,25.98,West,268,1.0,1.0,72,0.00,,,0.00,0,Wunderground v.1.15,2013-12-31 03:50:00,
2013-12-30 22:00:00,65.1,55.8,25.98,SSE,161,2.0,2.0,72,0.00,,,0.00,0,Wunderground v.1.15,2013-12-31 04:00:00,
2013-12-30 22:10:00,65.1,55.8,25.98,ENE,78,2.0,2.0,72,0.00,,,0.00,0,Wunderground v.1.15,2013-12-31 04:10:00,
2013-12-30 22:15:00,65.1,56.2,25.98,East,86,2.0,2.0,73,0.00,,,0.00,0,Wunderground v.1.15,2013-12-31 04:15:00,
2013-12-30 22:25:00,65.1,56.2,25.98,ESE,114,1.0,2.0,73,0.00,,,0.00,0,Wunderground v.1.15,2013-12-31 04:25:00,
2013-12-30 22:30:00,64.9,56.0,25.97,SSE,155,1.0,1.0,73,0.00,,,0.00,0,Wunderground v.1.15,2013-12-31 04:30:00,
2013-12-30 22:40:00,64.6,56.1,25.97,East,95,1.0,2.0,74,0.00,,,0.00,0,Wunderground v.1.15,2013-12-31 04:40:00,
2013-12-30 22:45:00,64.2,55.7,25.97,SE,134,1.0,2.0,74,0.00,,,0.00,0,Wunderground v.1.15,2013-12-31 04:45:00,
2013-12-30 22:55:00,64.1,56.0,25.97,East,101,1.0,1.0,75,0.00,,,0.00,0,Wunderground v.1.15,2013-12-31 04:55:00,
2013-12-30 23:00:00,64.1,56.0,25.97,ESE,104,1.0,2.0,75,0.00,,,0.00,0,Wunderground v.1.15,2013-12-31 05:00:00,
2013-12-30 23:05:00,63.9,55.4,25.97,ESE,108,1.0,2.0,74,0.00,,,0.00,0,Wunderground v.1.15,2013-12-31 05:05:00,
2013-12-30 23:10:00,63.9,54.7,25.97,SE,132,1.0,2.0,72,0.00,,,0.00,0,Wunderground v.1.15,2013-12-31 05:10:00,
2013-12-30 23:15:00,63.9,54.7,25.97,East,91,2.0,2.0,72,0.00,,,0.00,0,Wunderground v.1.15,2013-12-31 05:15:00,
2013-12-30 23:20:00,63.8,55.0,25.97,SE,132,2.0,2.0,73,0.00,,,0.00,0,Wunderground v.1.15,2013-12-31 05:20:00,
2013-12-30 23:25:00,63.8,54.6,25.97,ENE,71,1.0,2.0,72,0.00,,,0.00,0,Wunderground v.1.15,2013-12-31 05:25:00,
2013-12-30 23:30:00,63.9,54.7,25.97,SSE,167,2.0,2.0,72,0.00,,,0.00,0,Wunderground v.1.15,2013-12-31 05:30:00,
2013-12-30 23:35:00,63.9,55.1,25.97,ENE,63,1.0,2.0,73,0.00,,,0.00,0,Wunderground v.1.15,2013-12-31 05:35:00,
2013-12-30 23:40:00,63.9,55.1,25.97,ENE,75,1.0,3.0,73,0.00,,,0.00,0,Wunderground v.1.15,2013-12-31 05:40:00,
2013-12-30 23:45:00,63.9,55.8,25.96,ESE,121,1.0,3.0,75,0.00,,,0.00,0,Wunderground v.1.15,2013-12-31 05:45:00,
2013-12-30 23:55:00,63.8,55.7,25.97,ESE,103,1.0,5.0,75,0.00,,,0.00,0,Wunderground v.1.15,2013-12-31 05:55:00,